createdAt,value
2022-08-20T00:00:13.221Z,8.18
2022-08-20T00:02:40.576Z,7.28
2022-08-20T00:05:07.390Z,7.57
2022-08-20T00:07:33.933Z,8.10
2022-08-20T00:10:01.813Z,8.65
2022-08-20T00:12:28.453Z,7.55
2022-08-20T00:14:54.942Z,8.93
2022-08-20T00:17:21.555Z,8.27
2022-08-20T00:19:48.088Z,8.00
2022-08-20T00:22:14.704Z,8.13
2022-08-20T00:24:41.299Z,8.05
2022-08-20T00:27:09.198Z,7.82
2022-08-20T00:29:35.719Z,6.82
2022-08-20T00:32:02.243Z,6.22
2022-08-20T00:34:28.861Z,6.32
2022-08-20T00:36:55.481Z,6.15
2022-08-20T00:39:22.005Z,5.82
2022-08-20T00:41:48.545Z,5.75
2022-08-20T00:44:18.550Z,7.18
2022-08-20T00:46:45.503Z,6.18
2022-08-20T00:49:14.842Z,6.65
2022-08-20T00:51:43.715Z,5.78
2022-08-20T00:54:11.695Z,6.53
2022-08-20T00:56:38.953Z,5.65
2022-08-20T00:59:10.193Z,6.00
2022-08-20T01:01:55.297Z,5.55
2022-08-20T01:04:24.979Z,6.43
2022-08-20T01:06:51.527Z,6.35
2022-08-20T01:09:18.036Z,6.63
2022-08-20T01:12:05.336Z,6.47
2022-08-20T01:14:34.389Z,6.70
2022-08-20T01:17:05.131Z,7.72
2022-08-20T01:19:34.856Z,6.68
2022-08-20T01:22:02.573Z,7.57
2022-08-20T01:24:34.664Z,7.60
2022-08-20T01:27:04.560Z,8.52
2022-08-20T01:29:34.375Z,7.28
2022-08-20T01:32:02.298Z,7.30
2022-08-20T01:34:28.812Z,8.05
2022-08-20T01:36:56.102Z,7.20
2022-08-20T01:39:24.553Z,6.75
2022-08-20T01:42:01.924Z,9.15
2022-08-20T01:44:31.062Z,7.53
2022-08-20T01:47:07.443Z,7.75
2022-08-20T01:49:35.346Z,8.27
2022-08-20T01:52:05.795Z,7.82
2022-08-20T01:54:32.485Z,7.82
2022-08-20T01:57:02.319Z,7.95
2022-08-20T01:59:30.495Z,8.77
2022-08-20T02:01:57.643Z,8.05
2022-08-20T02:04:24.649Z,7.47
2022-08-20T02:06:56.875Z,8.77
2022-08-20T02:09:24.857Z,8.00
2022-08-20T02:11:53.278Z,8.80
2022-08-20T02:14:20.302Z,9.05
2022-08-20T02:16:54.573Z,8.77
2022-08-20T02:21:51.047Z,9.45
2022-08-20T02:24:17.931Z,8.77
2022-08-20T02:26:44.491Z,9.07
2022-08-20T02:29:11.676Z,10.30
2022-08-20T02:32:23.667Z,10.05
2022-08-20T02:34:27.378Z,10.35
2022-08-20T02:36:54.245Z,11.63
2022-08-20T02:39:20.753Z,11.25
2022-08-20T02:41:47.419Z,10.63
2022-08-20T02:44:13.914Z,10.63
2022-08-20T02:46:40.416Z,11.57
2022-08-20T02:49:09.610Z,11.52
2022-08-20T02:51:37.475Z,10.30
2022-08-20T02:54:04.094Z,9.65
2022-08-20T02:56:30.603Z,11.13
2022-08-20T02:58:57.098Z,9.93
2022-08-20T03:01:23.634Z,10.30
2022-08-20T03:03:50.383Z,9.90
2022-08-20T03:06:16.894Z,9.18
2022-08-20T03:08:44.810Z,9.48
2022-08-20T03:11:12.153Z,10.00
2022-08-20T03:13:38.852Z,9.85
2022-08-20T03:16:05.608Z,9.38
2022-08-20T03:18:36.253Z,8.93
2022-08-20T03:21:03.689Z,9.70
2022-08-20T03:23:30.498Z,8.60
2022-08-20T03:25:58.376Z,9.45
2022-08-20T03:28:25.146Z,8.88
2022-08-20T03:30:53.149Z,9.27
2022-08-20T03:33:20.360Z,9.88
2022-08-20T03:35:47.243Z,9.85
2022-08-20T03:38:14.932Z,10.15
2022-08-20T03:40:41.549Z,8.95
2022-08-20T03:43:09.889Z,8.82
2022-08-20T03:45:36.979Z,9.10
2022-08-20T03:48:04.138Z,9.57
2022-08-20T03:50:31.484Z,9.85
2022-08-20T03:52:59.489Z,9.32
2022-08-20T03:55:26.861Z,8.80
2022-08-20T03:57:55.209Z,8.40
2022-08-20T04:00:26.968Z,9.13
2022-08-20T04:02:53.516Z,9.10
2022-08-20T04:05:21.043Z,10.38
2022-08-20T04:07:47.594Z,9.70
2022-08-20T04:10:14.123Z,8.60
2022-08-20T04:12:48.692Z,9.15
2022-08-20T04:15:20.171Z,9.35
2022-08-20T04:17:53.531Z,9.60
2022-08-20T04:20:22.574Z,9.13
2022-08-20T04:22:58.469Z,8.77
2022-08-20T04:25:25.440Z,8.90
2022-08-20T04:27:53.488Z,8.32
2022-08-20T04:30:24.475Z,10.30
2022-08-20T04:32:53.339Z,8.57
2022-08-20T04:35:20.831Z,9.48
2022-08-20T04:37:48.124Z,9.48
2022-08-20T04:40:36.026Z,9.48
2022-08-20T04:43:04.809Z,9.27
2022-08-20T04:45:31.312Z,9.27
2022-08-20T04:48:05.681Z,9.82
2022-08-20T04:50:35.266Z,9.07
2022-08-20T04:53:02.133Z,9.93
2022-08-20T04:55:28.625Z,9.80
2022-08-20T04:57:56.240Z,9.10
2022-08-20T05:00:22.832Z,9.98
2022-08-20T05:02:49.360Z,9.40
2022-08-20T05:05:17.241Z,9.15
2022-08-20T05:07:45.936Z,9.68
2022-08-20T05:10:13.618Z,9.13
2022-08-20T05:12:40.677Z,9.13
2022-08-20T05:15:07.480Z,10.13
2022-08-20T05:17:33.978Z,9.88
2022-08-20T05:20:00.588Z,9.60
2022-08-20T05:22:30.743Z,9.57
2022-08-20T05:24:59.352Z,9.63
2022-08-20T05:27:27.133Z,10.60
2022-08-20T05:29:54.759Z,9.68
2022-08-20T05:32:21.384Z,10.60
2022-08-20T05:34:48.168Z,11.20
2022-08-20T05:37:15.368Z,9.70
2022-08-20T05:39:44.278Z,10.32
2022-08-20T05:42:11.189Z,9.10
2022-08-20T05:44:37.758Z,8.90
2022-08-20T05:47:04.597Z,9.57
2022-08-20T05:49:31.624Z,10.40
2022-08-20T05:51:59.245Z,10.38
2022-08-20T05:54:25.815Z,10.48
2022-08-20T05:56:53.813Z,11.32
2022-08-20T05:59:24.208Z,11.43
2022-08-20T06:01:51.299Z,10.35
2022-08-20T06:04:31.990Z,10.70
2022-08-20T06:07:02.368Z,10.00
2022-08-20T06:09:32.190Z,10.48
2022-08-20T06:12:01.428Z,10.55
2022-08-20T06:14:28.020Z,11.45
2022-08-20T06:16:57.886Z,11.20
2022-08-20T06:19:26.312Z,11.30
2022-08-20T06:21:53.379Z,11.50
2022-08-20T06:24:21.300Z,10.02
2022-08-20T06:26:47.982Z,11.73
2022-08-20T06:29:15.808Z,10.75
2022-08-20T06:31:42.417Z,10.27
2022-08-20T06:34:09.153Z,10.68
2022-08-20T06:36:35.792Z,11.07
2022-08-20T06:39:02.320Z,10.98
2022-08-20T06:41:36.105Z,10.70
2022-08-20T06:44:03.538Z,10.85
2022-08-20T06:46:32.255Z,10.80
2022-08-20T06:48:58.853Z,10.20
2022-08-20T06:51:25.377Z,10.65
2022-08-20T06:53:51.893Z,10.25
2022-08-20T06:56:18.389Z,9.32
2022-08-20T06:58:44.890Z,10.27
2022-08-20T07:01:12.112Z,9.63
2022-08-20T07:03:42.140Z,8.40
2022-08-20T07:06:21.861Z,9.27
2022-08-20T07:08:48.420Z,7.97
2022-08-20T07:11:14.951Z,8.18
2022-08-20T07:13:42.043Z,7.85
2022-08-20T07:16:08.634Z,7.72
2022-08-20T07:18:35.151Z,8.10
2022-08-20T07:21:03.047Z,7.95
2022-08-20T07:23:31.713Z,7.32
2022-08-20T07:25:58.459Z,7.35
2022-08-20T07:28:26.240Z,7.28
2022-08-20T07:31:13.439Z,6.80
2022-08-20T07:33:41.581Z,6.97
2022-08-20T07:36:09.937Z,5.45
2022-08-20T07:38:36.875Z,4.35
2022-08-20T07:41:04.722Z,5.47
2022-08-20T07:43:31.741Z,4.75
2022-08-20T07:46:01.376Z,3.60
2022-08-20T07:48:32.293Z,4.35
2022-08-20T07:50:59.708Z,3.72
2022-08-20T07:53:29.351Z,3.67
2022-08-20T07:55:59.595Z,3.47
2022-08-20T07:58:29.607Z,4.18
2022-08-20T08:01:00.258Z,4.30
2022-08-20T08:03:39.436Z,3.47
2022-08-20T08:06:14.778Z,2.70
2022-08-20T08:08:45.164Z,2.13
2022-08-20T08:11:12.118Z,3.05
2022-08-20T08:13:40.951Z,3.20
2022-08-20T08:16:08.236Z,3.13
2022-08-20T08:18:37.913Z,3.10
2022-08-20T08:21:05.281Z,2.72
2022-08-20T08:23:32.301Z,3.08
2022-08-20T08:26:00.470Z,2.47
2022-08-20T08:28:29.626Z,2.08
2022-08-20T08:30:56.354Z,2.30
2022-08-20T08:33:31.258Z,1.90
2022-08-20T08:35:59.985Z,2.17
2022-08-20T08:38:26.499Z,2.58
2022-08-20T08:40:59.151Z,2.35
2022-08-20T08:43:31.934Z,1.95
2022-08-20T08:45:59.921Z,2.00
2022-08-20T08:48:29.232Z,2.10
2022-08-20T08:50:59.592Z,1.40
2022-08-20T08:53:28.141Z,1.27
2022-08-20T08:55:54.693Z,1.13
2022-08-20T08:58:21.252Z,0.93
2022-08-20T09:00:56.362Z,1.50
2022-08-20T09:03:25.536Z,1.02
2022-08-20T09:05:52.985Z,0.90
2022-08-20T09:08:23.366Z,1.08
2022-08-20T09:10:49.927Z,1.45
2022-08-20T09:13:16.486Z,1.00
2022-08-20T09:15:43.041Z,1.20
2022-08-20T09:18:10.923Z,1.20
2022-08-20T09:20:37.605Z,1.15
2022-08-20T09:23:05.565Z,1.17
2022-08-20T09:25:32.236Z,1.17
2022-08-20T09:27:58.743Z,1.30
2022-08-20T09:30:26.402Z,1.33
2022-08-20T09:32:53.064Z,1.13
2022-08-20T09:35:21.023Z,1.63
2022-08-20T09:37:56.274Z,1.65
2022-08-20T09:40:23.118Z,1.27
2022-08-20T09:42:50.709Z,1.38
2022-08-20T09:45:17.247Z,1.40
2022-08-20T09:47:56.482Z,1.30
2022-08-20T09:50:33.335Z,1.20
2022-08-20T09:53:00.994Z,1.30
2022-08-20T09:55:30.314Z,1.23
2022-08-20T09:57:57.222Z,1.15
2022-08-20T10:00:23.906Z,1.30
2022-08-20T10:02:50.433Z,1.20
2022-08-20T10:05:17.175Z,0.90
2022-08-20T10:07:45.102Z,1.17
2022-08-20T10:10:12.907Z,1.40
2022-08-20T10:12:41.528Z,1.13
2022-08-20T10:15:08.858Z,1.20
2022-08-20T10:17:36.965Z,2.10
2022-08-20T10:20:04.036Z,1.38
2022-08-20T10:22:32.813Z,1.17
2022-08-20T10:25:00.966Z,1.33
2022-08-20T10:27:27.525Z,1.23
2022-08-20T10:29:54.101Z,1.42
2022-08-20T10:32:21.055Z,1.33
2022-08-20T10:34:47.638Z,1.27
2022-08-20T10:37:15.127Z,1.20
2022-08-20T10:39:41.726Z,1.38
2022-08-20T10:42:10.277Z,1.13
2022-08-20T10:44:37.010Z,1.15
2022-08-20T10:47:13.212Z,1.75
2022-08-20T10:49:39.690Z,1.30
2022-08-20T10:52:06.236Z,0.90
2022-08-20T10:54:32.909Z,1.20
2022-08-20T10:57:00.992Z,1.50
2022-08-20T10:59:28.961Z,1.40
2022-08-20T11:01:55.484Z,1.20
2022-08-20T11:04:22.117Z,1.25
2022-08-20T11:06:48.671Z,1.25
2022-08-20T11:09:15.184Z,1.20
2022-08-20T11:11:41.735Z,1.30
2022-08-20T11:14:08.282Z,1.38
2022-08-20T11:16:36.195Z,1.48
2022-08-20T11:19:02.695Z,1.10
2022-08-20T11:21:29.252Z,1.42
2022-08-20T11:23:56.820Z,1.45
2022-08-20T11:26:25.408Z,1.08
2022-08-20T11:28:51.897Z,1.30
2022-08-20T11:31:18.492Z,1.45
2022-08-20T11:33:46.366Z,1.75
2022-08-20T11:36:12.920Z,1.33
2022-08-20T11:38:39.405Z,1.00
2022-08-20T11:41:06.017Z,1.60
2022-08-20T11:43:32.514Z,1.52
2022-08-20T11:45:59.034Z,1.27
2022-08-20T11:48:25.548Z,1.10
2022-08-20T11:50:53.559Z,1.33
2022-08-20T11:53:20.110Z,1.45
2022-08-20T11:55:48.139Z,1.40
2022-08-20T11:58:14.619Z,1.58
2022-08-20T12:00:41.149Z,1.75
2022-08-20T12:03:10.391Z,1.38
2022-08-20T12:05:38.905Z,1.70
2022-08-20T12:08:07.064Z,1.40
2022-08-20T12:10:33.685Z,1.35
2022-08-20T12:13:00.368Z,1.50
2022-08-20T12:15:29.294Z,1.30
2022-08-20T12:17:56.139Z,1.45
2022-08-20T12:20:23.149Z,1.23
2022-08-20T12:22:49.771Z,1.42
2022-08-20T12:25:17.833Z,1.10
2022-08-20T12:27:45.304Z,1.20
2022-08-20T12:30:13.391Z,1.15
2022-08-20T12:32:40.360Z,1.15
2022-08-20T12:35:07.507Z,1.23
2022-08-20T12:37:34.229Z,1.20
2022-08-20T12:40:01.646Z,1.25
2022-08-20T12:42:30.634Z,1.50
2022-08-20T12:44:57.232Z,1.50
2022-08-20T12:47:26.467Z,1.20
2022-08-20T12:49:54.108Z,1.30
2022-08-20T12:52:21.439Z,1.30
2022-08-20T12:54:48.137Z,1.10
2022-08-20T12:57:15.513Z,1.42
2022-08-20T12:59:43.441Z,1.10
2022-08-20T13:02:14.048Z,1.30
2022-08-20T13:04:44.947Z,1.40
2022-08-20T13:07:12.992Z,1.40
2022-08-20T13:09:40.322Z,1.60
2022-08-20T13:12:07.395Z,1.45
2022-08-20T13:14:34.409Z,1.10
2022-08-20T13:17:02.325Z,1.20
2022-08-20T13:19:30.022Z,1.40
2022-08-20T13:21:56.660Z,1.20
2022-08-20T13:24:23.243Z,1.17
2022-08-20T13:26:50.350Z,1.42
2022-08-20T13:29:17.227Z,1.65
2022-08-20T13:31:43.746Z,1.77
2022-08-20T13:34:11.684Z,1.00
2022-08-20T13:36:38.682Z,1.10
2022-08-20T13:39:06.522Z,1.35
2022-08-20T13:41:33.097Z,1.10
2022-08-20T13:43:59.591Z,1.42
2022-08-20T13:46:26.063Z,1.50
2022-08-20T13:48:52.567Z,1.10
2022-08-20T13:51:21.749Z,1.20
2022-08-20T13:53:48.395Z,1.25
2022-08-20T13:56:14.898Z,1.50
2022-08-20T13:58:41.544Z,1.45
2022-08-20T14:01:08.090Z,0.93
2022-08-20T14:03:35.175Z,1.00
2022-08-20T14:06:02.769Z,1.17
2022-08-20T14:08:30.750Z,1.00
2022-08-20T14:10:57.469Z,1.15
2022-08-20T14:13:25.363Z,0.80
2022-08-20T14:15:52.008Z,1.00
2022-08-20T14:18:18.874Z,1.05
2022-08-20T14:20:45.886Z,0.90
2022-08-20T14:23:12.501Z,1.20
2022-08-20T14:25:40.480Z,1.10
2022-08-20T14:28:11.291Z,1.00
2022-08-20T14:30:38.086Z,1.05
2022-08-20T14:33:04.573Z,0.95
2022-08-20T14:35:31.117Z,1.30
2022-08-20T14:37:57.980Z,1.50
2022-08-20T14:40:26.057Z,0.93
2022-08-20T14:42:54.499Z,1.15
2022-08-20T14:45:21.889Z,0.68
2022-08-20T14:47:53.079Z,0.85
2022-08-20T14:50:21.992Z,0.77
2022-08-20T14:52:48.522Z,0.93
2022-08-20T14:55:15.894Z,0.95
2022-08-20T14:57:42.669Z,0.80
2022-08-20T15:00:12.587Z,0.80
2022-08-20T15:02:39.176Z,0.82
2022-08-20T15:05:07.013Z,1.08
2022-08-20T15:07:36.046Z,1.00
2022-08-20T15:10:06.158Z,0.80
2022-08-20T15:12:35.187Z,0.93
2022-08-20T15:15:13.201Z,0.80
2022-08-20T15:17:46.215Z,0.95
2022-08-20T15:20:20.089Z,0.95
2022-08-20T15:25:14.759Z,0.77
2022-08-20T15:27:41.976Z,0.52
2022-08-20T15:30:09.834Z,0.88
2022-08-20T15:32:36.407Z,0.60
2022-08-20T15:35:05.176Z,0.88
2022-08-20T15:37:32.179Z,0.82
2022-08-20T15:40:05.364Z,0.60
2022-08-20T15:42:31.992Z,1.00
2022-08-20T15:44:58.512Z,0.60
2022-08-20T15:47:26.346Z,0.80
2022-08-20T15:49:55.151Z,0.60
2022-08-20T15:52:23.239Z,0.77
2022-08-20T15:54:49.784Z,0.65
2022-08-20T15:57:29.209Z,0.60
2022-08-20T16:00:02.546Z,0.70
2022-08-20T16:02:42.690Z,0.65
2022-08-20T16:05:14.528Z,0.65
2022-08-20T16:07:47.757Z,0.70
2022-08-20T16:10:16.878Z,0.70
2022-08-20T16:12:47.142Z,0.63
2022-08-20T16:15:18.813Z,0.80
2022-08-20T16:17:49.324Z,0.85
2022-08-20T16:20:21.561Z,0.60
2022-08-20T16:22:49.839Z,0.88
2022-08-20T16:25:22.736Z,0.73
2022-08-20T16:27:54.719Z,0.80
2022-08-20T16:30:28.645Z,0.70
2022-08-20T16:33:00.588Z,0.80
2022-08-20T16:35:30.292Z,1.00
2022-08-20T16:38:02.292Z,0.50
2022-08-20T16:40:31.776Z,0.60
2022-08-20T16:43:00.126Z,0.68
2022-08-20T16:45:27.727Z,0.80
2022-08-20T16:47:57.108Z,0.80
2022-08-20T16:50:25.438Z,0.70
2022-08-20T16:52:51.997Z,0.80
2022-08-20T16:55:21.356Z,0.73
2022-08-20T16:57:48.800Z,0.70
2022-08-20T17:00:19.957Z,0.68
2022-08-20T17:02:50.763Z,1.00
2022-08-20T17:05:17.669Z,0.73
2022-08-20T17:07:51.271Z,0.90
2022-08-20T17:10:24.317Z,0.80
2022-08-20T17:12:54.830Z,0.60
2022-08-20T17:15:23.485Z,0.75
2022-08-20T17:17:49.996Z,0.90
2022-08-20T17:20:20.044Z,1.17
2022-08-20T17:22:48.613Z,0.93
2022-08-20T17:25:16.678Z,0.95
2022-08-20T17:27:45.136Z,1.30
2022-08-20T17:30:22.678Z,1.10
2022-08-20T17:32:57.857Z,0.90
2022-08-20T17:35:28.865Z,0.80
2022-08-20T17:37:55.860Z,0.65
2022-08-20T17:40:26.086Z,0.90
2022-08-20T17:43:01.325Z,1.15
2022-08-20T17:45:30.342Z,0.80
2022-08-20T17:47:58.441Z,0.88
2022-08-20T17:50:30.957Z,1.08
2022-08-20T17:53:01.049Z,1.02
2022-08-20T17:55:30.140Z,1.10
2022-08-20T17:58:00.719Z,1.10
2022-08-20T18:00:28.382Z,0.90
2022-08-20T18:02:57.519Z,1.33
2022-08-20T18:05:24.291Z,1.00
2022-08-20T18:08:02.951Z,1.17
2022-08-20T18:10:29.712Z,0.65
2022-08-20T18:12:58.913Z,0.80
2022-08-20T18:15:27.571Z,0.82
2022-08-20T18:18:05.157Z,0.95
2022-08-20T18:20:39.524Z,1.27
2022-08-20T18:23:10.538Z,0.88
2022-08-20T18:25:38.875Z,0.90
2022-08-20T18:28:09.207Z,0.70
2022-08-20T18:30:46.802Z,0.90
2022-08-20T18:33:13.580Z,1.02
2022-08-20T18:35:45.898Z,1.40
2022-08-20T18:38:24.573Z,0.80
2022-08-20T18:40:55.044Z,0.90
2022-08-20T18:43:27.307Z,1.00
2022-08-20T18:45:55.180Z,1.20
2022-08-20T18:48:23.040Z,1.02
2022-08-20T18:50:53.241Z,1.20
2022-08-20T18:53:22.627Z,0.90
2022-08-20T18:56:00.425Z,1.10
2022-08-20T18:58:29.603Z,1.30
2022-08-20T19:00:58.164Z,0.95
2022-08-20T19:03:29.024Z,0.90
2022-08-20T19:06:02.313Z,1.00
2022-08-20T19:08:33.968Z,1.00
2022-08-20T19:11:03.472Z,1.48
2022-08-20T19:13:46.346Z,1.00
2022-08-20T19:16:16.478Z,1.38
2022-08-20T19:18:46.937Z,1.00
2022-08-20T19:21:15.921Z,1.42
2022-08-20T19:23:47.780Z,1.48
2022-08-20T19:26:25.327Z,1.23
2022-08-20T19:28:54.962Z,1.50
2022-08-20T19:31:24.281Z,2.40
2022-08-20T19:34:00.036Z,1.85
2022-08-20T19:36:28.461Z,2.08
2022-08-20T19:38:56.267Z,1.73
2022-08-20T19:41:31.193Z,1.90
2022-08-20T19:43:58.655Z,1.83
2022-08-20T19:46:29.513Z,2.72
2022-08-20T19:49:04.690Z,2.63
2022-08-20T19:53:57.790Z,2.38
2022-08-20T19:56:25.765Z,2.50
2022-08-20T19:59:02.508Z,2.50
2022-08-20T20:01:30.554Z,2.53
2022-08-20T20:03:58.537Z,1.77
2022-08-20T20:06:26.896Z,3.13
2022-08-20T20:08:56.082Z,3.92
2022-08-20T20:11:25.984Z,2.30
2022-08-20T20:13:52.481Z,2.67
2022-08-20T20:16:20.246Z,2.58
2022-08-20T20:19:03.788Z,2.75
2022-08-20T20:21:36.917Z,2.63
2022-08-20T20:24:03.689Z,2.03
2022-08-20T20:26:31.405Z,2.47
2022-08-20T20:29:00.910Z,2.50
2022-08-20T20:31:28.479Z,3.40
2022-08-20T20:33:57.139Z,2.85
2022-08-20T20:36:34.569Z,3.05
2022-08-20T20:39:04.526Z,3.90
2022-08-20T20:41:31.469Z,3.33
2022-08-20T20:43:59.435Z,3.53
2022-08-20T20:46:28.722Z,3.38
2022-08-20T20:48:58.608Z,3.35
2022-08-20T20:51:26.941Z,3.42
2022-08-20T20:53:55.223Z,3.38
2022-08-20T20:56:30.568Z,3.30
2022-08-20T21:01:31.471Z,3.58
2022-08-20T21:04:11.336Z,3.83
2022-08-20T21:06:38.365Z,4.20
2022-08-20T21:09:04.879Z,4.50
2022-08-20T21:11:31.436Z,4.65
2022-08-20T21:13:57.931Z,5.85
2022-08-20T21:16:24.463Z,5.57
2022-08-20T21:18:50.986Z,4.90
2022-08-20T21:21:18.871Z,5.95
2022-08-20T21:23:45.424Z,5.60
2022-08-20T21:26:11.949Z,5.05
2022-08-20T21:28:38.446Z,4.97
2022-08-20T21:31:05.116Z,4.95
2022-08-20T21:33:31.608Z,5.15
2022-08-20T21:35:58.134Z,4.40
2022-08-20T21:38:26.036Z,4.28
2022-08-20T21:40:52.604Z,4.32
2022-08-20T21:43:19.369Z,4.38
2022-08-20T21:45:46.998Z,3.95
2022-08-20T21:48:16.251Z,3.85
2022-08-20T21:50:43.603Z,4.03
2022-08-20T21:53:12.844Z,3.72
2022-08-20T21:55:41.054Z,3.10
2022-08-20T21:58:07.706Z,3.80
2022-08-20T22:00:48.466Z,3.53
2022-08-20T22:03:15.256Z,2.47
2022-08-20T22:05:42.083Z,3.08
2022-08-20T22:08:08.946Z,2.60
2022-08-20T22:10:35.463Z,2.65
2022-08-20T22:13:03.576Z,2.50
2022-08-20T22:15:30.073Z,2.33
2022-08-20T22:17:56.598Z,2.30
2022-08-20T22:20:25.002Z,2.42
2022-08-20T22:22:51.667Z,2.75
2022-08-20T22:25:18.196Z,2.88
2022-08-20T22:27:44.743Z,3.33
2022-08-20T22:30:13.050Z,3.17
2022-08-20T22:32:51.271Z,3.88
2022-08-20T22:35:18.333Z,3.85
2022-08-20T22:37:44.838Z,3.92
2022-08-20T22:40:11.795Z,4.88
2022-08-20T22:42:38.366Z,4.57
2022-08-20T22:45:05.250Z,4.43
2022-08-20T22:47:41.723Z,4.35
2022-08-20T22:50:08.892Z,4.68
2022-08-20T22:52:37.220Z,4.53
2022-08-20T22:55:05.993Z,4.60
2022-08-20T22:57:34.334Z,4.78
2022-08-20T23:00:01.108Z,3.97
2022-08-20T23:02:27.714Z,4.22
2022-08-20T23:04:56.153Z,4.00
2022-08-20T23:07:22.748Z,3.97
2022-08-20T23:09:49.668Z,4.22
2022-08-20T23:12:16.192Z,3.70
2022-08-20T23:14:42.706Z,3.63
2022-08-20T23:17:13.415Z,3.72
2022-08-20T23:19:41.294Z,4.03
2022-08-20T23:22:09.367Z,3.80
2022-08-20T23:24:36.378Z,3.60
2022-08-20T23:27:03.336Z,3.72
2022-08-20T23:29:30.708Z,3.75
2022-08-20T23:31:57.537Z,4.05
2022-08-20T23:34:24.550Z,3.55
2022-08-20T23:36:52.469Z,3.67
2022-08-20T23:39:20.446Z,3.90
2022-08-20T23:41:47.967Z,3.95
2022-08-20T23:44:26.332Z,4.05
2022-08-20T23:46:54.679Z,3.85
2022-08-20T23:49:21.300Z,4.53
2022-08-20T23:51:47.825Z,3.70
2022-08-20T23:54:14.387Z,4.45
2022-08-20T23:56:42.286Z,3.70
2022-08-20T23:59:08.839Z,4.18
